Data for 07/17/2015

Time Sea-Level Adjusted Pressure Absolute Pressure Temperature Relative Humidity Dew Point   
(mb) (inHg) (mb) (inHg) (C) (F) (%) (C) (F)
00:05 1018 30.06 847 25.01 16.3 61.3 33 0.2 32.4
00:10 1018 30.06 847 25.01 16.2 61.1 33 0.2 32.3
00:15 1018 30.06 847 25.01 16.1 61 33 0.1 32.2
00:20 1018 30.06 847 25.01 16 60.8 34 0.2 32.4
00:25 1018 30.06 847 25.01 15.9 60.7 36 1.1 33.9
00:30 1018 30.06 847 25.01 15.7 60.3 38 1.6 34.8
00:35 1018 30.06 847 25.01 15.5 60 39 1.6 34.8
00:40 1018 30.06 847 25.01 15.5 59.8 38 1.3 34.4
00:45 1018 30.06 847 25.01 15.4 59.7 38 1.1 34
00:50 1018 30.06 847 25.01 15.4 59.7 37 0.9 33.5
00:55 1018 30.06 847 25.01 15.4 59.7 37 0.9 33.7
01:00 1018 30.06 847 25.01 15.4 59.7 37 0.9 33.7
01:05 1018 30.06 847 25.01 15.3 59.5 38 1.3 34.4
01:10 1018 30.06 847 25.01 15.2 59.3 39 1.3 34.4
01:15 1018 30.06 847 25.01 15.1 59.2 39 1.2 34.2
01:20 1018 30.06 847 25.01 15.1 59.1 38 1.1 34
01:25 1018 30.06 847 25.01 15 59.1 39 1.2 34.1
01:30 1018 30.06 847 25.01 15 59 39 1.2 34.1
01:35 1018 30.06 847 25.01 15 59 40 1.5 34.7
01:40 1018 30.06 847 25.01 14.9 58.9 40 1.5 34.7
01:45 1018 30.06 847 25.01 14.9 58.8 40 1.6 35
01:50 1018 30.06 847 25.01 14.9 58.9 40 1.5 34.7
01:55 1018 30.06 847 25.01 14.9 58.9 39 1.3 34.3
02:00 1018 30.06 847 25.01 14.9 58.9 41 1.9 35.3
02:05 1017 30.03 847 25.01 14.9 58.8 40 1.5 34.7
02:10 1017 30.03 847 25.01 14.9 58.8 39 1.3 34.3
02:15 1018 30.06 847 25.01 14.8 58.7 39 1.1 34.1
02:20 1018 30.06 847 25.01 14.9 58.7 40 1.4 34.5
02:25 1018 30.06 847 25.01 14.8 58.7 41 1.9 35.5
02:30 1017 30.03 847 25.01 14.7 58.5 43 2.3 36.1
02:35 1017 30.03 847 25.01 14.6 58.3 44 2.6 36.7
02:40 1017 30.03 847 25.01 14.5 58.1 43 2.1 35.9
02:45 1017 30.03 846 24.98 14.5 58 43 2.2 36
02:50 1017 30.03 846 24.98 14.5 58 44 2.3 36.2
02:55 1017 30.03 846 24.98 14.4 57.9 43 2.1 35.8
03:00 1017 30.03 846 24.98 14.4 57.9 42 1.7 35
03:05 1017 30.03 846 24.98 14.4 58 42 1.7 35.1
03:10 1017 30.03 846 24.98 14.4 58 42 1.8 35.3
03:15 1017 30.03 846 24.98 14.4 57.9 45 2.7 36.8
03:20 1017 30.03 846 24.98 14.2 57.6 47 3.2 37.7
03:25 1017 30.03 846 24.98 13.8 56.8 49 3.4 38.1
03:30 1017 30.03 846 24.98 13.6 56.4 52 3.9 39
03:35 1017 30.03 846 24.98 13.4 56.1 53 4.1 39.4
03:40 1017 30.03 846 24.98 13.3 55.9 54 4.2 39.5
03:45 1017 30.03 846 24.98 13.1 55.7 56 4.6 40.3
03:50 1017 30.03 846 24.98 13 55.4 58 4.9 40.8
03:55 1017 30.03 846 24.98 12.8 55 60 5.2 41.4
04:00 1017 30.03 846 24.98 12.5 54.5 59 4.8 40.7
04:05 1017 30.03 846 24.98 12.8 55 54 3.7 38.6
04:10 1017 30.03 846 24.98 13 55.4 53 3.7 38.6
04:15 1017 30.03 846 24.98 13.1 55.6 52 3.4 38.1
04:20 1017 30.03 846 24.98 13.1 55.5 51 3.2 37.8
04:25 1017 30.03 846 24.98 13.1 55.5 50 3.1 37.5
04:30 1017 30.03 846 24.98 13.1 55.6 49 2.7 36.8
04:35 1017 30.03 846 24.98 13.3 55.9 45 1.8 35.2
04:40 1017 30.03 846 24.98 13.4 56.1 45 1.9 35.4
04:45 1017 30.03 846 24.98 13.4 56.1 44 1.5 34.7
04:50 1017 30.03 846 24.98 13.4 56.1 45 1.6 34.9
04:55 1017 30.03 846 24.98 13.3 55.9 45 1.7 35.1
05:00 1017 30.03 846 24.98 13.2 55.8 46 1.9 35.3
05:05 1017 30.03 846 24.98 13.2 55.7 46 2 35.6
05:10 1017 30.03 846 24.98 13.1 55.6 46 1.7 35.1
05:15 1017 30.03 846 24.98 13.2 55.8 45 1.7 35.1
05:20 1017 30.03 846 24.98 13.3 56 44 1.5 34.7
05:25 1017 30.03 846 24.98 13.5 56.3 44 1.4 34.5
05:30 1017 30.03 846 24.98 13.7 56.7 42 1 33.8
05:35 1017 30.03 846 24.98 13.8 56.9 41 0.7 33.3
05:40 1017 30.03 846 24.98 13.8 56.8 44 1.9 35.5
05:45 1017 30.03 846 24.98 13.4 56.1 47 2.3 36.1
05:50 1017 30.03 846 24.98 13 55.4 48 2.4 36.3
05:55 1017 30.03 846 24.98 12.9 55.3 48 2.3 36.1
06:00 1017 30.03 846 24.98 13 55.3 46 1.8 35.2
06:05 1017 30.03 846 24.98 13.1 55.5 46 1.8 35.2
06:10 1017 30.03 846 24.98 13.2 55.7 47 2.3 36.1
06:15 1017 30.03 846 24.98 13.2 55.7 48 2.5 36.5
06:20 1017 30.03 846 24.98 13 55.3 49 2.5 36.4
06:25 1017 30.03 846 24.98 13 55.3 48 2.2 36
06:30 1017 30.03 846 24.98 13 55.4 48 2.3 36.2
06:35 1017 30.03 846 24.98 13 55.3 48 2.4 36.3
06:40 1017 30.03 846 24.98 12.9 55.3 48 2.3 36.1
06:45 1017 30.03 846 24.98 12.9 55.2 49 2.4 36.4
06:50 1017 30.03 846 24.98 12.9 55.3 48 2.4 36.2
06:55 1017 30.03 846 24.98 13 55.3 48 2.3 36.1
07:00 1017 30.03 846 24.98 13.1 55.6 48 2.3 36.1
07:05 1017 30.03 846 24.98 13.1 55.6 47 2.2 36
07:10 1017 30.03 846 24.98 13.2 55.7 46 2 35.6
07:15 1017 30.03 846 24.98 13.3 55.9 47 2.2 36
07:20 1017 30.03 847 25.01 13.5 56.3 46 2.2 36
07:25 1017 30.03 847 25.01 13.5 56.4 46 2.4 36.2
07:30 1017 30.03 847 25.01 13.6 56.6 44 1.7 35.1
07:35 1017 30.03 847 25.01 13.7 56.7 44 1.7 35.1
07:40 1017 30.03 847 25.01 13.8 56.8 44 1.8 35.3
07:45 1017 30.03 847 25.01 13.8 56.9 44 2 35.6
07:50 1017 30.03 847 25.01 13.9 56.9 44 2 35.6
07:55 1017 30.03 847 25.01 14.2 57.5 43 2 35.6
08:00 1017 30.03 847 25.01 14.4 57.9 40 1.2 34.1
08:05 1017 30.03 847 25.01 14.7 58.5 40 1.4 34.6
08:10 1017 30.03 847 25.01 15 59 38 1 33.8
08:15 1017 30.03 847 25.01 15.4 59.6 37 0.9 33.7
08:20 1017 30.03 847 25.01 15.5 59.9 35 0.4 32.7
08:25 1017 30.03 847 25.01 16.1 60.9 34 0.2 32.4
08:30 1017 30.03 847 25.01 16 60.8 35 0.7 33.3
08:35 1017 30.03 847 25.01 16 60.8 35 0.6 33.1
08:40 1017 30.03 846 24.98 16.9 62.4 33 0.8 33.4
08:45 1017 30.03 846 24.98 17.7 63.8 31 0.5 32.9
08:50 1017 30.03 846 24.98 17.3 63.1 32 0.3 32.6
08:55 1017 30.03 846 24.98 17 62.6 31 -0.1 31.7
09:00 1017 30.03 846 24.98 17.5 63.5 29 -0.4 31.2
09:05 1017 30.03 846 24.98 17.9 64.3 29 -0 32
09:10 1017 30.03 846 24.98 18 64.5 29 -0.1 31.9
09:15 1017 30.03 846 24.98 17.6 63.7 31 0.4 32.7
09:20 1017 30.03 846 24.98 17.5 63.4 31 0.5 32.9
09:25 1017 30.03 846 24.98 17.9 64.1 29 -0.1 31.7
09:30 1017 30.03 846 24.98 17.8 64.1 30 -0 31.9
09:35 1017 30.03 846 24.98 18 64.4 30 0.4 32.6
09:40 1017 30.03 846 24.98 18.8 65.8 29 0.3 32.6
09:45 1017 30.03 846 24.98 19 66.1 27 -0.3 31.4
09:50 1017 30.03 846 24.98 18.5 65.4 29 0.1 32.1
09:55 1017 30.03 846 24.98 18.4 65.1 28 -0.2 31.6
10:00 1017 30.03 846 24.98 18.1 64.6 30 0.2 32.4
10:05 1017 30.03 846 24.98 18.9 66 27 -0.2 31.6
10:10 1017 30.03 846 24.98 18.2 64.7 29 0 32
10:15 1017 30.03 846 24.98 18.4 65 30 0.4 32.7
10:20 1017 30.03 846 24.98 17.5 63.5 30 -0.3 31.5
10:25 1017 30.03 846 24.98 18 64.4 28 -0.4 31.2
10:30 1016 30 846 24.98 18 64.5 29 -0.3 31.5
10:35 1016 30 846 24.98 18.8 65.9 29 0.6 33.1
10:40 1016 30 846 24.98 17.8 64.1 29 -0.2 31.6
10:45 1016 30 846 24.98 17.6 63.6 30 0.1 32.1
10:50 1016 30 846 24.98 18.4 65.1 28 -0.4 31.3
10:55 1016 30 845 24.95 19.3 66.8 26 -0.4 31.3
11:00 1016 30 845 24.95 20 68 24 -1.2 29.8
11:05 1016 30 845 24.95 20.2 68.4 23 -1.3 29.7
11:10 1016 30 845 24.95 20.3 68.6 21 -2.4 27.7
11:15 1016 30 845 24.95 20.3 68.5 23 -1.5 29.3
11:20 1016 30 845 24.95 20.5 68.8 22 -1.9 28.6
11:25 1016 30 845 24.95 20.6 69 24 -0.8 30.6
11:30 1016 30 845 24.95 20.7 69.3 22 -1.3 29.6
11:35 1016 30 845 24.95 20.9 69.5 22 -1.4 29.5
11:40 1016 30 845 24.95 20.8 69.4 23 -1.2 29.8
11:45 1016 30 845 24.95 20.1 68.2 23 -1.4 29.4
11:50 1016 30 845 24.95 20.4 68.6 22 -1.9 28.7
11:55 1016 30 845 24.95 20.9 69.5 23 -1.1 30.1
12:00 1016 30 845 24.95 21 69.8 23 -0.8 30.5
12:05 1016 30 845 24.95 21.3 70.3 22 -0.8 30.5
12:10 1016 30 845 24.95 21.1 70 21 -1.9 28.6
12:15 1016 30 845 24.95 20.8 69.4 23 -1 30.2
12:20 1016 30 845 24.95 21.4 70.6 20 -2.4 27.6
12:25 1016 30 845 24.95 21.5 70.6 21 -1.6 29.1
12:30 1016 30 845 24.95 22.2 72 20 -1.3 29.7
12:35 1016 30 845 24.95 22 71.6 19 -2.2 28.1
12:40 1016 30 845 24.95 21.4 70.5 21 -1.6 29.1
12:45 1016 30 845 24.95 21.4 70.4 21 -1.9 28.6
12:50 1016 30 845 24.95 21.6 71 19 -2.6 27.3
12:55 1016 30 845 24.95 21.7 71.1 20 -2 28.4
13:00 1016 30 845 24.95 22 71.6 20 -1.5 29.2
13:05 1016 30 845 24.95 22.6 72.8 18 -2.6 27.3
13:10 1015 29.97 845 24.95 22.8 73.1 19 -2 28.3
13:15 1015 29.97 845 24.95 22.7 72.9 18 -2.3 27.9
13:20 1015 29.97 845 24.95 22.7 72.8 19 -2.2 28.1
13:25 1015 29.97 845 24.95 23 73.4 18 -2 28.3
13:30 1015 29.97 845 24.95 22.8 73 18 -2.6 27.3
13:35 1015 29.97 844 24.92 22.7 72.9 20 -1 30.3
13:40 1015 29.97 844 24.92 22.8 73 19 -1.8 28.7
13:45 1015 29.97 844 24.92 22.8 73 18 -2.3 27.9
13:50 1015 29.97 844 24.92 22.5 72.6 20 -1.6 29.1
13:55 1015 29.97 844 24.92 23 73.3 18 -2.2 28
14:00 1015 29.97 844 24.92 22.7 72.9 18 -2.8 26.9
14:05 1015 29.97 844 24.92 23.2 73.7 18 -2.2 28
14:10 1015 29.97 844 24.92 23.4 74.1 17 -2.5 27.5
14:15 1015 29.97 845 24.95 22.5 72.5 18 -2.6 27.3
14:20 1015 29.97 845 24.95 22.5 72.5 20 -1.5 29.2
14:25 1015 29.97 844 24.92 22.4 72.4 19 -2.1 28.2
14:30 1015 29.97 844 24.92 22.5 72.5 19 -2.1 28.2
14:35 1015 29.97 845 24.95 22.1 71.8 19 -2.6 27.3
14:40 1015 29.97 845 24.95 22.5 72.4 19 -1.9 28.6
14:45 1015 29.97 844 24.92 22.8 73.1 18 -2.2 28.1
14:50 1015 29.97 844 24.92 22.8 73 20 -1.5 29.3
14:55 1015 29.97 844 24.92 23.2 73.8 18 -2.5 27.4
15:00 1015 29.97 844 24.92 23.2 73.8 16 -3.4 25.8
15:05 1015 29.97 844 24.92 22.9 73.3 18 -2.4 27.7
15:10 1015 29.97 844 24.92 22.6 72.8 19 -2.2 28
15:15 1015 29.97 844 24.92 22.8 73 19 -1.8 28.8
15:20 1015 29.97 844 24.92 22.5 72.6 19 -1.9 28.6
15:25 1015 29.97 844 24.92 22.4 72.3 20 -1.7 29
15:30 1015 29.97 844 24.92 22.4 72.4 19 -2.2 28
15:35 1015 29.97 844 24.92 22.7 72.8 18 -2.8 27
15:40 1015 29.97 844 24.92 22.9 73.1 18 -2.3 27.9
15:45 1015 29.97 844 24.92 22.8 73 19 -2.1 28.2
15:50 1015 29.97 844 24.92 22.8 73 20 -1.5 29.3
15:55 1015 29.97 845 24.95 23.2 73.7 18 -1.9 28.5
16:00 1015 29.97 845 24.95 23.5 74.3 19 -1 30.3
16:05 1015 29.97 845 24.95 23.2 73.8 19 -1.1 30
16:10 1015 29.97 845 24.95 22.5 72.5 19 -1.8 28.7
16:15 1015 29.97 845 24.95 22.5 72.5 19 -1.7 28.9
16:20 1015 29.97 845 24.95 22.7 72.8 19 -1.6 29.1
16:25 1015 29.97 845 24.95 23.1 73.6 20 -0.9 30.4
16:30 1015 29.97 845 24.95 23 73.5 20 -1.1 30.1
16:35 1016 30 845 24.95 22.8 73 20 -1.2 29.8
16:40 1016 30 845 24.95 23 73.5 19 -1.4 29.4
16:45 1016 30 845 24.95 22.2 72 20 -1.5 29.3
16:50 1016 30 845 24.95 21.6 70.8 21 -1.3 29.7
16:55 1016 30 845 24.95 21.5 70.6 21 -1.3 29.7
17:00 1016 30 845 24.95 21.4 70.6 22 -1.3 29.7
17:05 1016 30 845 24.95 21.4 70.6 22 -1.2 29.9
17:10 1016 30 845 24.95 21.3 70.4 23 -0.6 30.8
17:15 1016 30 845 24.95 21.3 70.4 22 -0.9 30.4
17:20 1016 30 845 24.95 21.1 69.9 23 -0.7 30.8
17:25 1016 30 845 24.95 20.7 69.3 23 -0.8 30.5
17:30 1016 30 845 24.95 20.6 69.1 23 -1.2 29.9
17:35 1016 30 845 24.95 21 69.8 22 -1.2 29.9
17:40 1016 30 845 24.95 20.6 69 23 -0.8 30.5
17:45 1016 30 845 24.95 20.3 68.5 24 -0.7 30.7
17:50 1016 30 845 24.95 20 68 24 -0.8 30.6
17:55 1016 30 846 24.98 19.6 67.4 25 -0.6 30.9
18:00 1016 30 846 24.98 19.5 67.2 26 -0.5 31.1
18:05 1016 30 846 24.98 19.5 67 26 -0.4 31.2
18:10 1017 30.03 846 24.98 19.5 67.1 26 -0.6 30.9
18:15 1017 30.03 846 24.98 19.4 66.9 26 -0.4 31.3
18:20 1017 30.03 846 24.98 19.6 67.3 26 -0.4 31.3
18:25 1017 30.03 846 24.98 19.7 67.4 25 -0.5 31.1
18:30 1017 30.03 846 24.98 19.4 66.9 26 -0.3 31.4
18:35 1017 30.03 846 24.98 19.3 66.7 27 0.1 32.2
18:40 1017 30.03 846 24.98 19.1 66.4 27 -0 32
18:45 1017 30.03 846 24.98 18.9 66.1 27 -0.1 31.8
18:50 1017 30.03 846 24.98 18.9 66 28 -0.1 31.9
18:55 1017 30.03 847 25.01 19 66.1 28 0.3 32.6
19:00 1017 30.03 847 25.01 18.8 65.9 28 0.2 32.4
19:05 1017 30.03 847 25.01 18.6 65.5 28 0 32.1
19:10 1017 30.03 847 25.01 18.6 65.4 29 0.2 32.4
19:15 1018 30.06 847 25.01 18.7 65.6 28 0.1 32.2
19:20 1018 30.06 847 25.01 18.6 65.5 29 0.3 32.6
19:25 1018 30.06 847 25.01 18.6 65.5 30 0.7 33.2
19:30 1018 30.06 847 25.01 18.4 65.1 30 0.5 32.9
19:35 1018 30.06 847 25.01 18 64.3 30 0.5 32.9
19:40 1018 30.06 847 25.01 17.9 64.2 31 0.5 33
19:45 1018 30.06 847 25.01 17.6 63.7 31 0.5 33
19:50 1018 30.06 847 25.01 17.5 63.5 32 0.6 33.1
19:55 1018 30.06 848 25.04 17.4 63.3 32 0.8 33.4
20:00 1018 30.06 848 25.04 17.2 63 33 0.7 33.3
20:05 1018 30.06 848 25.04 17.1 62.8 33 0.7 33.2
20:10 1019 30.09 848 25.04 17 62.6 33 0.8 33.4
20:15 1019 30.09 848 25.04 16.9 62.3 34 1 33.8
20:20 1019 30.09 848 25.04 16.7 62.1 34 0.7 33.3
20:25 1019 30.09 848 25.04 16.6 61.9 34 0.8 33.4
20:30 1019 30.09 848 25.04 16.5 61.6 35 1 33.8
20:35 1019 30.09 848 25.04 16.3 61.4 35 1 33.8
20:40 1019 30.09 848 25.04 16.3 61.3 36 1.1 34
20:45 1019 30.09 848 25.04 16.1 61.1 36 1.2 34.2
20:50 1019 30.09 848 25.04 16 60.9 39 2.3 36.1
20:55 1019 30.09 849 25.07 15.9 60.6 37 1.4 34.5
21:00 1019 30.09 849 25.07 15.7 60.2 38 1.6 34.8
21:05 1019 30.09 849 25.07 15.6 60 38 1.5 34.6
21:10 1020 30.12 849 25.07 15.5 59.8 39 1.6 34.9
21:15 1020 30.12 849 25.07 15.4 59.6 39 1.6 34.9
21:20 1020 30.12 849 25.07 15.3 59.5 39 1.5 34.7
21:25 1020 30.12 849 25.07 15.1 59.3 40 1.6 34.8
21:30 1020 30.12 849 25.07 15.1 59.1 40 1.7 35
21:35 1020 30.12 849 25.07 14.9 58.9 41 1.8 35.2
21:40 1020 30.12 849 25.07 14.8 58.6 41 1.9 35.4
21:45 1020 30.12 849 25.07 14.6 58.3 42 1.8 35.3
21:50 1020 30.12 850 25.1 14.6 58.2 42 1.8 35.3
21:55 1020 30.12 850 25.1 14.6 58.2 42 2 35.5
22:00 1020 30.12 850 25.1 14.5 58.1 43 2.3 36.1
22:05 1020 30.12 850 25.1 14.5 58.1 43 2.2 35.9
22:10 1020 30.12 850 25.1 14.5 58.1 42 2 35.5
22:15 1020 30.12 850 25.1 14.5 58.1 43 2.1 35.7
22:20 1020 30.12 850 25.1 14.5 58.1 43 2.1 35.8
22:25 1020 30.12 850 25.1 14.4 58 42 1.9 35.5
22:30 1021 30.15 850 25.1 14.4 57.9 43 2.1 35.8
22:35 1020 30.12 850 25.1 14.4 57.9 43 2 35.5
22:40 1021 30.15 850 25.1 14.4 57.8 43 2.1 35.8
22:45 1021 30.15 850 25.1 14.3 57.8 43 2.1 35.8
22:50 1021 30.15 850 25.1 14.3 57.7 43 1.9 35.5
22:55 1021 30.15 850 25.1 14.3 57.7 44 2.3 36.2
23:00 1021 30.15 850 25.1 14.1 57.4 46 2.6 36.8
23:05 1021 30.15 850 25.1 13.9 56.9 48 3 37.3
23:10 1021 30.15 850 25.1 13.5 56.3 50 3.3 38
23:15 1021 30.15 850 25.1 13 55.4 52 3.4 38.1
23:20 1021 30.15 850 25.1 12.8 55 52 3.4 38.1
23:25 1021 30.15 850 25.1 12.6 54.7 52 3.2 37.7
23:30 1021 30.15 850 25.1 12.5 54.5 52 3.1 37.6
23:35 1021 30.15 850 25.1 12.5 54.5 52 2.9 37.2
23:40 1021 30.15 850 25.1 12.6 54.7 51 2.9 37.3
23:45 1021 30.15 850 25.1 12.6 54.7 51 2.9 37.2
23:50 1021 30.15 850 25.1 12.6 54.7 51 2.9 37.2
23:55 1021 30.15 850 25.1 12.6 54.8 51 2.8 37
24:00 1021 30.15 850 25.1 12.6 54.6 51 2.7 36.9